Time;durP1;ratioP1;P1;durP2;ratioP2;P2;SDS_P1;SDS_P2;PMS_P1;PMS_P2;Temp;Humidity;BMP_temperature;BMP_pressure;BME280_temperature;BME280_humidity;BME280_pressure;Samples;Min_cycle;Max_cycle;Signal;HPM_P1;HPM_P2
2023/01/26 00:00:29;;;;;;;136.25;31.88;;;1.80;99.90;;;;;;4982840;28;20049;-71
2023/01/26 00:02:55;;;;;;;124.90;31.33;;;2.00;99.90;;;;;;4984735;28;20410;-71
2023/01/26 00:05:20;;;;;;;138.98;32.67;;;1.80;99.90;;;;;;4980992;28;20055;-69
2023/01/26 00:07:46;;;;;;;133.15;31.20;;;1.80;99.90;;;;;;4982417;28;20050;-71
2023/01/26 00:10:12;;;;;;;111.68;29.38;;;1.90;99.90;;;;;;4982019;28;20050;-69
2023/01/26 00:12:38;;;;;;;118.22;30.45;;;2.00;99.90;;;;;;4984009;28;20073;-70
2023/01/26 00:15:04;;;;;;;129.65;32.13;;;2.00;99.90;;;;;;4982694;28;20524;-70
2023/01/26 00:17:29;;;;;;;134.50;32.25;;;1.80;99.90;;;;;;4995056;28;20418;-70
2023/01/26 00:19:57;;;;;;;135.63;32.80;;;1.90;99.90;;;;;;4985868;28;20042;-70
2023/01/26 00:22:24;;;;;;;126.50;32.92;;;1.80;99.90;;;;;;4981427;28;20100;-70
2023/01/26 00:24:50;;;;;;;125.05;30.98;;;1.90;99.90;;;;;;4982545;28;20045;-71
2023/01/26 00:27:15;;;;;;;136.40;32.80;;;1.90;99.90;;;;;;4982470;28;20595;-70
2023/01/26 00:29:42;;;;;;;133.35;32.50;;;1.90;99.90;;;;;;4980991;28;20053;-70
2023/01/26 00:32:08;;;;;;;139.07;31.92;;;2.00;99.90;;;;;;4981344;28;20066;-69
2023/01/26 00:34:33;;;;;;;136.07;30.25;;;1.90;99.90;;;;;;4984169;28;20509;-70
2023/01/26 00:36:59;;;;;;;144.80;32.50;;;1.90;99.90;;;;;;4985544;28;20034;-70
2023/01/26 00:39:25;;;;;;;140.50;34.22;;;2.00;99.90;;;;;;4983263;28;20101;-70
2023/01/26 00:42:12;;;;;;;125.90;31.27;;;2.00;99.90;;;;;;4982856;28;20467;-70
2023/01/26 00:44:37;;;;;;;124.75;31.75;;;2.00;99.90;;;;;;4982237;28;20053;-70
2023/01/26 00:47:07;;;;;;;116.25;31.33;;;2.00;99.90;;;;;;4983914;28;20045;-70
2023/01/26 00:49:33;;;;;;;139.05;33.30;;;2.00;99.90;;;;;;4981947;28;20552;-69
2023/01/26 00:51:59;;;;;;;138.45;32.88;;;2.10;99.90;;;;;;4984231;28;20042;-70
2023/01/26 00:54:26;;;;;;;142.63;33.15;;;2.00;99.90;;;;;;4979997;28;20034;-71
2023/01/26 00:56:52;;;;;;;108.10;31.88;;;2.00;99.90;;;;;;4983549;28;20058;-71
2023/01/26 00:59:18;;;;;;;131.25;33.38;;;2.00;99.90;;;;;;4981925;28;20061;-71
2023/01/26 01:01:44;;;;;;;116.40;32.58;;;2.10;99.90;;;;;;4984004;28;20494;-71
2023/01/26 01:04:09;;;;;;;122.65;29.67;;;2.00;99.90;;;;;;4982741;28;20138;-71
2023/01/26 01:06:35;;;;;;;114.60;29.52;;;2.00;99.90;;;;;;4984778;28;20056;-71
2023/01/26 01:09:01;;;;;;;110.95;29.90;;;2.20;99.90;;;;;;4984382;28;20125;-70
2023/01/26 01:11:26;;;;;;;109.55;29.30;;;2.10;99.90;;;;;;4979305;28;20582;-71
2023/01/26 01:13:52;;;;;;;113.45;28.50;;;2.00;99.90;;;;;;4984798;28;20113;-71
2023/01/26 01:16:18;;;;;;;116.93;28.27;;;2.00;99.90;;;;;;4980695;28;20046;-70
2023/01/26 01:18:44;;;;;;;103.85;27.02;;;2.00;99.90;;;;;;4985579;28;20054;-70
2023/01/26 01:21:14;;;;;;;102.90;27.63;;;2.00;99.90;;;;;;4981960;28;20483;-70
2023/01/26 01:23:40;;;;;;;107.32;29.40;;;2.20;99.90;;;;;;4983875;28;20612;-70
2023/01/26 01:26:07;;;;;;;95.03;25.75;;;2.10;99.90;;;;;;4978186;28;20046;-70
2023/01/26 01:28:34;;;;;;;102.15;26.90;;;2.10;99.90;;;;;;4983779;28;20046;-70
2023/01/26 01:31:03;;;;;;;99.60;27.27;;;2.20;99.90;;;;;;4980732;28;20047;-70
2023/01/26 01:33:29;;;;;;;100.75;26.58;;;2.10;99.90;;;;;;4986344;28;20061;-70
2023/01/26 01:35:59;;;;;;;121.03;30.42;;;2.20;99.90;;;;;;4979910;28;20112;-70
2023/01/26 01:38:25;;;;;;;113.47;27.63;;;2.30;99.90;;;;;;4983903;28;20039;-70
2023/01/26 01:40:52;;;;;;;115.72;27.30;;;2.20;99.90;;;;;;4982597;28;20049;-70
2023/01/26 01:43:17;;;;;;;113.85;25.88;;;2.20;99.90;;;;;;4983091;28;20391;-70
2023/01/26 01:45:44;;;;;;;120.78;28.80;;;2.10;99.90;;;;;;4981755;28;20060;-70
2023/01/26 01:48:50;;;;;;;127.72;29.52;;;2.10;99.90;;;;;;4982535;28;20523;-70
2023/01/26 01:51:25;;;;;;;107.82;26.20;;;2.10;99.90;;;;;;4978972;28;20043;-70
2023/01/26 01:53:52;;;;;;;109.05;28.80;;;2.30;99.90;;;;;;4982543;28;20050;-70
2023/01/26 01:56:23;;;;;;;113.53;28.95;;;2.20;99.90;;;;;;4983005;28;20050;-70
2023/01/26 01:58:53;;;;;;;126.15;28.35;;;2.20;99.90;;;;;;4982244;28;20081;-70
2023/01/26 02:01:19;;;;;;;130.25;29.02;;;2.20;99.90;;;;;;4979767;28;21668;-70
2023/01/26 02:03:47;;;;;;;121.07;28.63;;;2.10;99.90;;;;;;4979059;28;20046;-70
2023/01/26 02:06:17;;;;;;;115.18;29.48;;;2.20;99.90;;;;;;4983517;28;20050;-71
2023/01/26 02:08:46;;;;;;;114.82;30.27;;;2.20;99.90;;;;;;4979715;28;20045;-70
2023/01/26 02:11:29;;;;;;;111.43;29.67;;;2.30;99.90;;;;;;4981619;28;20042;-70
2023/01/26 02:13:57;;;;;;;114.80;28.70;;;2.30;99.90;;;;;;4980193;28;20042;-70
2023/01/26 02:16:22;;;;;;;121.13;29.92;;;2.10;99.90;;;;;;4993267;28;20124;-70
2023/01/26 02:18:48;;;;;;;124.65;29.30;;;2.30;99.90;;;;;;4982138;28;20046;-70
2023/01/26 02:21:17;;;;;;;110.88;29.00;;;2.10;99.90;;;;;;4982607;28;20508;-70
2023/01/26 02:23:55;;;;;;;120.97;29.60;;;2.20;99.90;;;;;;4976406;28;20042;-70
2023/01/26 02:26:27;;;;;;;131.68;31.60;;;2.30;99.90;;;;;;4981196;28;20057;-70
2023/01/26 02:28:53;;;;;;;143.43;32.05;;;2.20;99.90;;;;;;4983493;28;20042;-70
2023/01/26 02:31:18;;;;;;;109.50;27.13;;;2.30;99.90;;;;;;4981487;28;20046;-70
2023/01/26 02:33:44;;;;;;;125.53;30.58;;;2.30;99.90;;;;;;4984538;28;20057;-70
2023/01/26 02:36:31;;;;;;;127.20;29.95;;;2.20;99.90;;;;;;4982911;28;20097;-70
2023/01/26 02:39:24;;;;;;;130.63;31.58;;;2.20;99.90;;;;;;4981224;28;20065;-70
2023/01/26 02:44:37;;;;;;;138.68;31.00;;;2.30;99.90;;;;;;4980544;28;20034;-70
2023/01/26 02:47:14;;;;;;;146.70;31.35;;;2.30;99.90;;;;;;4983431;28;20564;-70
2023/01/26 02:49:46;;;;;;;153.00;31.52;;;2.40;99.90;;;;;;4972044;28;20053;-70
2023/01/26 02:52:12;;;;;;;151.95;32.08;;;2.30;99.90;;;;;;4958727;28;20039;-70
2023/01/26 02:57:23;;;;;;;144.25;32.10;;;2.30;99.90;;;;;;4944277;28;20042;-70
2023/01/26 02:59:48;;;;;;;145.90;31.60;;;2.30;99.90;;;;;;4942817;28;20070;-70
2023/01/26 03:02:14;;;;;;;137.48;32.58;;;2.30;99.90;;;;;;4949522;28;20485;-70
2023/01/26 03:04:41;;;;;;;155.27;32.80;;;2.40;99.90;;;;;;4949795;28;20062;-71
2023/01/26 03:07:06;;;;;;;156.13;35.38;;;2.30;99.90;;;;;;4947303;28;20154;-70
2023/01/26 03:09:32;;;;;;;147.95;34.03;;;2.40;99.90;;;;;;4951363;28;20180;-70
2023/01/26 03:11:58;;;;;;;172.55;34.85;;;2.50;99.90;;;;;;4965516;28;20185;-70
2023/01/26 03:14:23;;;;;;;145.00;33.15;;;2.40;99.90;;;;;;4948512;28;20105;-69
2023/01/26 03:16:49;;;;;;;140.65;32.60;;;2.40;99.90;;;;;;4965165;28;20043;-69
2023/01/26 03:27:34;;;;;;;150.63;33.60;;;2.40;99.90;;;;;;4968809;28;20050;-70
2023/01/26 03:30:00;;;;;;;168.90;33.42;;;2.60;99.90;;;;;;4965093;28;20724;-70
2023/01/26 03:32:25;;;;;;;151.05;31.00;;;2.40;99.90;;;;;;4945081;28;20126;-70
2023/01/26 03:34:51;;;;;;;180.68;36.75;;;2.50;99.90;;;;;;4950862;28;20047;-70
2023/01/26 03:37:21;;;;;;;158.00;35.63;;;2.60;99.90;;;;;;4951009;28;20065;-70
2023/01/26 03:56:23;;;;;;;193.48;36.50;;;2.70;99.90;;;;;;4988990;28;20049;-70
2023/01/26 03:58:56;;;;;;;175.57;34.75;;;2.60;99.90;;;;;;4981770;28;20092;-70
2023/01/26 04:01:27;;;;;;;159.38;35.63;;;2.60;99.90;;;;;;4984160;28;20134;-71
2023/01/26 04:09:25;;;;;;;186.25;34.97;;;2.70;99.90;;;;;;4983608;28;20042;-70
2023/01/26 04:11:51;;;;;;;178.38;36.15;;;2.70;99.90;;;;;;4983042;28;20425;-70
2023/01/26 04:22:42;;;;;;;166.80;34.83;;;2.80;99.90;;;;;;4984574;28;20085;-69
2023/01/26 04:25:16;;;;;;;151.15;33.80;;;3.00;99.90;;;;;;4982266;28;20814;-70
2023/01/26 04:27:42;;;;;;;149.80;32.80;;;2.80;99.90;;;;;;4982353;28;20056;-70
2023/01/26 04:30:10;;;;;;;138.45;32.35;;;3.00;99.90;;;;;;4983075;28;20180;-69
2023/01/26 04:32:36;;;;;;;140.95;28.83;;;2.80;99.90;;;;;;4986123;28;20490;-69
2023/01/26 04:35:04;;;;;;;136.07;29.98;;;2.90;99.90;;;;;;4983636;28;20142;-70
2023/01/26 04:37:30;;;;;;;110.38;24.45;;;3.00;99.90;;;;;;4984395;28;20050;-70
2023/01/26 04:39:55;;;;;;;105.63;20.65;;;3.00;99.90;;;;;;4985333;28;20048;-70
2023/01/26 04:42:23;;;;;;;99.25;20.25;;;3.10;99.90;;;;;;4981667;28;20053;-69
2023/01/26 04:44:50;;;;;;;89.70;17.13;;;3.10;99.90;;;;;;4982048;28;20039;-70
2023/01/26 04:47:16;;;;;;;85.07;12.95;;;3.30;99.90;;;;;;4982050;28;20043;-69
2023/01/26 04:49:42;;;;;;;64.15;9.88;;;3.40;99.90;;;;;;4980801;28;20267;-69
2023/01/26 04:52:07;;;;;;;55.22;8.50;;;3.50;99.90;;;;;;4983895;28;20345;-70
2023/01/26 04:54:33;;;;;;;71.75;8.82;;;3.70;99.90;;;;;;4982583;28;20074;-70
2023/01/26 04:56:59;;;;;;;64.35;7.25;;;3.80;99.90;;;;;;4982351;28;20081;-71
2023/01/26 04:59:24;;;;;;;44.03;7.55;;;3.90;99.90;;;;;;4985325;28;20043;-71
2023/01/26 05:01:50;;;;;;;49.25;7.05;;;3.90;99.90;;;;;;4983272;28;20046;-71
2023/01/26 05:04:15;;;;;;;60.40;6.85;;;4.00;99.90;;;;;;4982595;28;20042;-71
2023/01/26 05:06:41;;;;;;;50.95;5.28;;;4.10;99.90;;;;;;4984228;28;20112;-70
2023/01/26 05:09:07;;;;;;;41.05;5.68;;;4.10;99.90;;;;;;4986197;28;20045;-69
2023/01/26 05:11:34;;;;;;;46.40;6.30;;;4.10;99.90;;;;;;4979957;28;20125;-69
2023/01/26 05:13:59;;;;;;;44.45;5.45;;;4.20;99.90;;;;;;4982526;28;20042;-70
2023/01/26 05:16:25;;;;;;;45.03;5.47;;;4.20;99.90;;;;;;4978435;28;20101;-70
2023/01/26 05:18:52;;;;;;;40.97;5.47;;;4.10;99.90;;;;;;4986395;28;20049;-69
2023/01/26 05:21:18;;;;;;;55.88;6.63;;;4.20;99.90;;;;;;4981414;28;20510;-69
2023/01/26 05:23:44;;;;;;;46.85;5.32;;;4.30;99.90;;;;;;4981752;28;20049;-70
2023/01/26 05:26:09;;;;;;;40.95;5.78;;;4.30;99.90;;;;;;4982368;28;20050;-69
2023/01/26 05:28:35;;;;;;;46.92;4.88;;;4.40;99.90;;;;;;4981896;28;20113;-69
2023/01/26 05:31:01;;;;;;;50.25;5.10;;;4.40;99.90;;;;;;4981877;28;20042;-70
2023/01/26 05:33:26;;;;;;;41.00;4.82;;;4.50;99.90;;;;;;4985814;28;20046;-71
2023/01/26 05:35:52;;;;;;;37.63;5.80;;;4.60;99.90;;;;;;4979767;28;20038;-69
2023/01/26 05:38:19;;;;;;;46.78;6.20;;;4.50;99.90;;;;;;4981929;28;20046;-70
2023/01/26 05:40:45;;;;;;;62.63;8.35;;;4.50;99.90;;;;;;4978363;28;20311;-70
2023/01/26 05:43:12;;;;;;;32.20;4.20;;;4.60;99.90;;;;;;4982533;28;20366;-69
2023/01/26 05:45:38;;;;;;;33.63;5.85;;;4.60;99.90;;;;;;4983474;28;20187;-69
2023/01/26 05:48:04;;;;;;;38.40;5.03;;;4.40;99.90;;;;;;4980794;28;20132;-69
2023/01/26 05:50:31;;;;;;;40.53;4.75;;;4.50;99.90;;;;;;4979491;28;20145;-69
2023/01/26 05:52:58;;;;;;;42.17;5.25;;;4.30;99.90;;;;;;4983122;28;20046;-70
2023/01/26 05:55:23;;;;;;;39.03;5.80;;;4.30;99.90;;;;;;4978414;28;20035;-70
2023/01/26 05:57:49;;;;;;;48.60;5.95;;;4.40;99.90;;;;;;4982852;28;20062;-70
2023/01/26 06:00:15;;;;;;;46.20;5.68;;;4.40;99.90;;;;;;4983093;28;20038;-70
2023/01/26 06:02:41;;;;;;;54.22;5.97;;;4.30;99.90;;;;;;4981591;28;20403;-69
2023/01/26 06:05:08;;;;;;;34.45;5.43;;;4.20;99.90;;;;;;4979443;28;20050;-69
2023/01/26 06:07:34;;;;;;;43.45;4.43;;;4.30;99.90;;;;;;4983590;28;20042;-69
2023/01/26 06:10:00;;;;;;;40.60;5.00;;;4.10;99.90;;;;;;4979858;28;20097;-71
2023/01/26 06:12:30;;;;;;;42.80;4.40;;;4.20;99.90;;;;;;4979664;28;20074;-70
2023/01/26 06:14:56;;;;;;;49.30;6.65;;;4.10;99.90;;;;;;4976682;28;20053;-69
2023/01/26 06:17:22;;;;;;;38.70;5.72;;;4.20;99.90;;;;;;4983117;28;20058;-70
2023/01/26 06:19:48;;;;;;;46.88;5.78;;;4.10;99.90;;;;;;4980317;28;20375;-69
2023/01/26 06:22:14;;;;;;;42.30;4.63;;;4.20;99.90;;;;;;4979950;28;20311;-70
2023/01/26 06:24:39;;;;;;;40.83;6.47;;;4.10;99.90;;;;;;4976132;28;20057;-71
2023/01/26 06:27:13;;;;;;;43.38;5.97;;;4.10;99.90;;;;;;4977416;28;20044;-70
2023/01/26 06:29:38;;;;;;;;;;;4.20;99.90;;;;;;4976514;28;20112;-69
2023/01/26 06:32:04;;;;;;;42.95;6.63;;;4.20;99.90;;;;;;4982794;28;19930;-68
2023/01/26 06:34:30;;;;;;;48.38;6.47;;;4.00;99.90;;;;;;4975436;28;20575;-68
2023/01/26 06:36:56;;;;;;;47.58;7.85;;;4.10;99.90;;;;;;4974934;28;20057;-68
2023/01/26 06:39:22;;;;;;;39.13;4.47;;;4.10;99.90;;;;;;4991671;28;20050;-72
2023/01/26 06:41:47;;;;;;;44.53;5.47;;;4.00;99.90;;;;;;4989155;28;20939;-70
2023/01/26 06:44:13;;;;;;;50.67;4.80;;;4.00;99.90;;;;;;4984161;28;20054;-69
2023/01/26 06:46:39;;;;;;;50.35;4.80;;;3.90;99.90;;;;;;4990075;28;20401;-71
2023/01/26 06:49:05;;;;;;;36.05;4.97;;;4.00;99.90;;;;;;4989607;28;20050;-68
2023/01/26 06:51:46;;;;;;;39.17;5.32;;;3.90;99.90;;;;;;4988794;28;20049;-70
2023/01/26 06:54:13;;;;;;;35.38;5.57;;;4.00;99.90;;;;;;4984547;28;20046;-70
2023/01/26 06:56:39;;;;;;;38.42;5.03;;;3.90;99.90;;;;;;5002155;28;20263;-69
2023/01/26 06:59:05;;;;;;;36.95;5.32;;;3.90;99.90;;;;;;4984236;28;20658;-70
2023/01/26 07:01:37;;;;;;;47.47;6.70;;;3.90;99.90;;;;;;4983982;28;20422;-68
2023/01/26 07:04:03;;;;;;;49.95;5.18;;;4.00;99.90;;;;;;4988369;28;20081;-69
2023/01/26 07:06:29;;;;;;;37.92;6.53;;;3.90;99.90;;;;;;4981591;28;20536;-68
2023/01/26 07:08:54;;;;;;;30.73;5.32;;;3.90;99.90;;;;;;4987644;28;20682;-68
2023/01/26 07:11:20;;;;;;;37.42;6.03;;;3.90;99.90;;;;;;4987096;28;20084;-68
2023/01/26 07:13:46;;;;;;;38.22;5.35;;;3.90;99.90;;;;;;4990876;28;20046;-70
2023/01/26 07:16:13;;;;;;;34.97;4.70;;;3.90;99.90;;;;;;4986299;28;20569;-68
2023/01/26 07:18:39;;;;;;;45.20;7.38;;;4.00;99.90;;;;;;4990099;28;20042;-68
2023/01/26 07:21:08;;;;;;;31.30;4.60;;;3.80;99.90;;;;;;4988806;28;20110;-71
2023/01/26 07:23:35;;;;;;;41.08;5.82;;;4.10;99.90;;;;;;4987004;28;20365;-71
2023/01/26 07:26:01;;;;;;;46.72;6.30;;;4.00;99.90;;;;;;4985648;28;20521;-70
2023/01/26 07:28:29;;;;;;;40.45;5.15;;;4.20;99.90;;;;;;4988761;28;20108;-70
2023/01/26 07:31:01;;;;;;;43.00;5.47;;;4.20;99.90;;;;;;4989765;28;20113;-70
2023/01/26 07:33:31;;;;;;;32.03;4.87;;;4.10;99.90;;;;;;4988744;28;20049;-70
2023/01/26 07:35:57;;;;;;;35.53;5.15;;;4.00;99.90;;;;;;4988400;28;20044;-70
2023/01/26 07:38:23;;;;;;;35.70;4.55;;;4.20;99.90;;;;;;4989536;28;20043;-71
2023/01/26 07:40:50;;;;;;;37.03;5.00;;;4.20;99.90;;;;;;4984988;28;20034;-69
2023/01/26 07:43:16;;;;;;;44.85;4.80;;;4.10;99.90;;;;;;4990446;28;20045;-68
2023/01/26 07:45:46;;;;;;;25.27;4.00;;;4.20;99.90;;;;;;4987702;28;20125;-69
2023/01/26 07:48:12;;;;;;;35.53;6.28;;;4.00;99.90;;;;;;4985995;28;20596;-69
2023/01/26 07:50:37;;;;;;;40.50;4.72;;;4.10;99.90;;;;;;4985884;28;20682;-70
2023/01/26 07:53:03;;;;;;;34.00;4.55;;;4.00;99.90;;;;;;4989477;28;20053;-71
2023/01/26 07:55:28;;;;;;;39.47;4.50;;;4.00;99.90;;;;;;4983159;28;20046;-69
2023/01/26 07:57:56;;;;;;;28.40;4.65;;;3.90;99.90;;;;;;4989564;28;20042;-69
2023/01/26 08:00:22;;;;;;;33.80;5.07;;;4.00;99.90;;;;;;4987216;28;20099;-69
2023/01/26 08:02:51;;;;;;;45.17;6.68;;;3.80;99.90;;;;;;4987784;28;20050;-69
2023/01/26 08:05:16;;;;;;;37.60;4.13;;;3.80;99.90;;;;;;4986199;28;20588;-70
2023/01/26 08:07:42;;;;;;;28.83;4.22;;;3.90;99.90;;;;;;4987974;28;20038;-71
2023/01/26 08:10:09;;;;;;;34.17;4.00;;;3.80;99.90;;;;;;4986441;28;20050;-70
2023/01/26 08:12:35;;;;;;;26.15;5.82;;;3.90;99.90;;;;;;5001920;28;20395;-70
2023/01/26 08:15:01;;;;;;;32.78;4.28;;;3.90;99.90;;;;;;4985382;28;20042;-71
2023/01/26 08:17:28;;;;;;;36.92;6.28;;;4.10;99.90;;;;;;4986503;28;20137;-70
2023/01/26 08:19:54;;;;;;;35.88;4.05;;;4.00;99.90;;;;;;4985454;28;20046;-71
2023/01/26 08:22:19;;;;;;;35.97;5.68;;;4.00;99.90;;;;;;4986515;28;20620;-71
2023/01/26 08:24:45;;;;;;;37.97;4.88;;;4.20;99.90;;;;;;4982869;28;20073;-71
2023/01/26 08:27:11;;;;;;;36.47;5.32;;;4.10;99.90;;;;;;4989354;28;20064;-70
2023/01/26 08:29:36;;;;;;;22.55;3.85;;;4.20;99.90;;;;;;4988555;28;20042;-70
2023/01/26 08:32:02;;;;;;;38.72;5.00;;;4.10;99.90;;;;;;4988898;28;20050;-71
2023/01/26 08:34:28;;;;;;;36.40;6.93;;;4.30;99.90;;;;;;4986241;28;20390;-70
2023/01/26 08:36:54;;;;;;;39.42;4.43;;;4.10;99.90;;;;;;4988753;28;20038;-70
2023/01/26 08:39:19;;;;;;;30.50;5.05;;;4.20;99.90;;;;;;4986732;28;20509;-72
2023/01/26 08:41:46;;;;;;;35.67;4.63;;;4.30;99.90;;;;;;4987651;28;20490;-70
2023/01/26 08:44:12;;;;;;;36.15;5.95;;;4.30;99.90;;;;;;4988878;28;20568;-70
2023/01/26 08:46:37;;;;;;;36.10;6.32;;;4.50;99.90;;;;;;4987528;28;20069;-70
2023/01/26 08:49:03;;;;;;;23.40;3.90;;;4.50;99.90;;;;;;4988277;28;20053;-71
2023/01/26 08:51:29;;;;;;;30.63;5.53;;;4.60;99.90;;;;;;4987846;28;20042;-70
2023/01/26 08:53:54;;;;;;;30.98;4.57;;;4.60;99.90;;;;;;4990184;28;20398;-70
2023/01/26 08:56:20;;;;;;;28.40;4.03;;;4.50;99.90;;;;;;4987605;28;20042;-70
2023/01/26 08:58:47;;;;;;;28.60;3.72;;;4.60;99.90;;;;;;4987298;28;20054;-70
2023/01/26 09:01:14;;;;;;;31.15;4.05;;;4.80;99.90;;;;;;4986527;28;20048;-70
2023/01/26 09:03:40;;;;;;;39.22;5.68;;;4.70;99.90;;;;;;4988519;28;20481;-70
2023/01/26 09:06:08;;;;;;;29.02;4.45;;;4.80;99.90;;;;;;4987245;28;20038;-70
2023/01/26 09:08:34;;;;;;;22.55;4.47;;;4.80;99.90;;;;;;4989420;28;20045;-70
2023/01/26 09:11:00;;;;;;;31.58;4.53;;;4.90;99.90;;;;;;4988065;28;20046;-71
2023/01/26 09:13:26;;;;;;;29.88;4.13;;;4.90;99.90;;;;;;4991434;28;20101;-70
2023/01/26 09:15:52;;;;;;;31.42;6.35;;;5.00;99.90;;;;;;4987441;28;20115;-70
2023/01/26 09:18:17;;;;;;;34.10;3.85;;;5.10;99.90;;;;;;4990151;28;20096;-70
2023/01/26 09:20:44;;;;;;;36.25;5.60;;;5.20;99.90;;;;;;4990016;28;20137;-70
2023/01/26 09:23:11;;;;;;;30.67;4.85;;;5.30;99.90;;;;;;4988126;28;20552;-69
2023/01/26 09:25:38;;;;;;;32.60;4.30;;;5.30;99.90;;;;;;4986630;28;20565;-70
2023/01/26 09:28:04;;;;;;;34.22;4.82;;;5.30;99.90;;;;;;4987429;28;20053;-70
2023/01/26 09:30:31;;;;;;;32.90;4.75;;;5.40;99.90;;;;;;4984337;28;20058;-70
2023/01/26 09:32:58;;;;;;;30.90;4.38;;;5.60;99.90;;;;;;4983690;28;20052;-70
2023/01/26 09:35:25;;;;;;;41.58;6.20;;;5.50;99.90;;;;;;4982751;28;20465;-70
2023/01/26 09:37:50;;;;;;;20.40;3.65;;;5.60;99.90;;;;;;4985134;28;20092;-70
2023/01/26 09:40:27;;;;;;;27.88;4.13;;;5.70;99.90;;;;;;4979732;28;20034;-70
2023/01/26 09:43:07;;;;;;;23.13;4.18;;;5.90;99.90;;;;;;4987842;28;20294;-70
2023/01/26 09:45:42;;;;;;;25.88;4.00;;;6.00;99.90;;;;;;4985928;28;20058;-70
2023/01/26 09:48:17;;;;;;;23.40;3.22;;;6.00;99.90;;;;;;4982142;28;20035;-70
2023/01/26 09:50:51;;;;;;;24.80;3.97;;;6.20;99.90;;;;;;4983035;28;20092;-71
2023/01/26 09:53:30;;;;;;;25.17;3.47;;;6.10;99.90;;;;;;4986266;28;20034;-70
2023/01/26 09:55:56;;;;;;;25.90;4.55;;;6.30;99.90;;;;;;4985366;28;20046;-70
2023/01/26 09:58:34;;;;;;;24.08;4.45;;;6.30;99.90;;;;;;4988214;28;20049;-70
2023/01/26 10:01:01;;;;;;;29.02;3.75;;;6.30;99.90;;;;;;4988510;28;20038;-70
2023/01/26 10:03:42;;;;;;;26.02;3.33;;;6.40;99.90;;;;;;4986048;28;20097;-71
2023/01/26 10:06:25;;;;;;;27.63;3.95;;;6.50;99.90;;;;;;4984029;28;20121;-70
2023/01/26 10:08:53;;;;;;;36.33;3.90;;;6.40;99.90;;;;;;4986713;28;20076;-70
2023/01/26 10:11:37;;;;;;;26.35;3.45;;;6.50;99.90;;;;;;4996452;28;20050;-70
2023/01/26 10:14:14;;;;;;;21.25;3.38;;;6.60;99.90;;;;;;4985284;28;20069;-70
2023/01/26 10:16:44;;;;;;;23.58;4.90;;;6.60;99.90;;;;;;4984703;28;20137;-70
2023/01/26 10:19:32;;;;;;;22.73;3.70;;;6.60;99.90;;;;;;4987782;28;20074;-70
2023/01/26 10:22:02;;;;;;;26.23;3.78;;;6.70;99.90;;;;;;4984843;28;20039;-70
2023/01/26 10:24:28;;;;;;;25.98;4.20;;;6.70;99.90;;;;;;4986827;28;20046;-70
2023/01/26 10:26:57;;;;;;;24.23;4.90;;;6.60;99.90;;;;;;4987142;28;20042;-70
2023/01/26 10:29:22;;;;;;;15.52;2.60;;;6.60;99.90;;;;;;4984952;28;20490;-70
2023/01/26 10:31:48;;;;;;;23.73;4.13;;;6.70;99.90;;;;;;4989110;28;20045;-70
2023/01/26 10:34:23;;;;;;;23.80;3.13;;;6.70;99.90;;;;;;4989030;28;20046;-70
2023/01/26 10:36:48;;;;;;;21.35;3.33;;;6.90;99.90;;;;;;4987555;28;20057;-70
2023/01/26 10:39:16;;;;;;;27.23;3.33;;;6.90;99.90;;;;;;4987737;28;20518;-70
2023/01/26 10:42:16;;;;;;;25.00;4.32;;;6.90;99.90;;;;;;4988394;28;20189;-70
2023/01/26 10:44:42;;;;;;;21.20;4.30;;;7.00;99.90;;;;;;4984367;28;20532;-70
2023/01/26 10:47:16;;;;;;;18.52;3.08;;;7.00;99.90;;;;;;4985317;28;20082;-70
2023/01/26 10:49:41;;;;;;;20.50;3.67;;;7.10;99.90;;;;;;4986447;28;20349;-71
2023/01/26 10:52:23;;;;;;;19.95;2.90;;;7.10;99.90;;;;;;4983910;28;20361;-70
2023/01/26 10:55:19;;;;;;;21.25;3.00;;;7.20;99.90;;;;;;4980659;28;20058;-71
2023/01/26 10:57:45;;;;;;;20.17;3.38;;;7.30;99.90;;;;;;4977983;28;20042;-70
2023/01/26 11:00:32;;;;;;;18.23;2.95;;;7.20;99.90;;;;;;4985848;28;20054;-69
2023/01/26 11:03:16;;;;;;;24.55;3.55;;;7.10;99.90;;;;;;4986859;28;20050;-69
2023/01/26 11:05:43;;;;;;;;;;;7.20;99.90;;;;;;4986565;28;20069;-69
2023/01/26 11:08:34;;;;;;;24.77;5.13;;;7.20;99.90;;;;;;5001101;28;20282;-70
2023/01/26 11:11:02;;;;;;;22.38;2.88;;;7.30;99.90;;;;;;4997994;28;20050;-70
2023/01/26 11:13:29;;;;;;;25.67;3.90;;;7.40;99.90;;;;;;4985997;28;20039;-70
2023/01/26 11:16:15;;;;;;;23.98;3.88;;;7.40;99.90;;;;;;4984872;28;20042;-70
2023/01/26 11:19:12;;;;;;;23.95;3.30;;;7.40;99.90;;;;;;4986597;28;20041;-70
2023/01/26 11:22:15;;;;;;;21.48;3.13;;;7.50;99.90;;;;;;4986207;28;20498;-70
2023/01/26 11:25:08;;;;;;;23.45;3.30;;;7.50;99.90;;;;;;4953696;28;20072;-69
2023/01/26 11:27:50;;;;;;;30.25;4.68;;;7.50;99.90;;;;;;4989423;28;20050;-69
2023/01/26 11:30:56;;;;;;;19.65;2.97;;;7.50;99.90;;;;;;4988934;28;20057;-69
2023/01/26 11:33:36;;;;;;;18.52;2.92;;;7.40;99.90;;;;;;4975188;28;20137;-71
2023/01/26 11:36:15;;;;;;;25.05;3.90;;;7.40;99.90;;;;;;4989955;28;20121;-70
2023/01/26 11:39:00;;;;;;;21.13;3.13;;;7.40;99.90;;;;;;4986521;28;20639;-71
2023/01/26 11:41:54;;;;;;;23.48;2.85;;;7.30;99.90;;;;;;4986129;28;20070;-70
2023/01/26 11:44:35;;;;;;;15.73;2.55;;;7.40;99.90;;;;;;4982731;28;20058;-71
2023/01/26 11:47:16;;;;;;;22.52;3.67;;;7.50;99.90;;;;;;4985880;28;20078;-71
2023/01/26 11:50:22;;;;;;;19.10;3.83;;;7.60;99.90;;;;;;4987975;28;20145;-70
2023/01/26 11:53:26;;;;;;;13.90;2.85;;;7.60;99.90;;;;;;4978670;28;20111;-75
2023/01/26 11:56:05;;;;;;;14.33;2.80;;;7.70;99.90;;;;;;4986335;28;20058;-76
2023/01/26 11:58:39;;;;;;;17.40;2.80;;;7.70;99.90;;;;;;4980211;28;20286;-77
2023/01/26 12:01:20;;;;;;;11.95;2.30;;;7.70;99.90;;;;;;4982041;28;20050;-76
2023/01/26 12:03:50;;;;;;;21.30;3.10;;;7.60;99.90;;;;;;4985610;28;20112;-76
2023/01/26 12:06:40;;;;;;;19.92;3.28;;;7.70;99.90;;;;;;4987086;28;20046;-76
2023/01/26 12:09:19;;;;;;;15.25;2.70;;;7.80;99.90;;;;;;4984339;28;20046;-77
2023/01/26 12:12:04;;;;;;;17.23;2.65;;;7.90;99.90;;;;;;4986240;28;20050;-76
2023/01/26 12:14:45;;;;;;;18.33;2.10;;;7.90;99.90;;;;;;4968821;28;20069;-77
2023/01/26 12:17:29;;;;;;;13.18;1.90;;;7.90;99.90;;;;;;4985476;28;20097;-76
2023/01/26 12:20:14;;;;;;;15.13;2.65;;;7.80;99.90;;;;;;4981476;28;20304;-77
2023/01/26 12:22:51;;;;;;;13.77;3.13;;;7.80;99.90;;;;;;4978592;28;20419;-78
2023/01/26 12:25:28;;;;;;;14.40;1.98;;;7.70;99.90;;;;;;4979580;28;20066;-76
2023/01/26 12:28:16;;;;;;;8.45;1.60;;;7.70;99.90;;;;;;4991848;28;20068;-78
2023/01/26 12:30:52;;;;;;;11.30;1.75;;;7.60;99.90;;;;;;4981579;28;20202;-78
2023/01/26 12:33:17;;;;;;;18.15;3.53;;;7.50;99.90;;;;;;4985225;28;20076;-78
2023/01/26 12:36:15;;;;;;;12.10;2.15;;;7.50;99.90;;;;;;4983488;28;20101;-77
2023/01/26 12:38:45;;;;;;;16.05;2.78;;;7.50;99.90;;;;;;4988537;28;20042;-77
2023/01/26 12:41:34;;;;;;;20.77;2.60;;;7.60;99.90;;;;;;4981576;28;20050;-77
2023/01/26 12:44:10;;;;;;;18.65;2.53;;;7.80;99.90;;;;;;4967063;28;20057;-77
2023/01/26 12:46:40;;;;;;;15.60;1.90;;;7.90;99.90;;;;;;5003182;28;20058;-78
2023/01/26 12:49:20;;;;;;;15.75;2.65;;;7.90;99.90;;;;;;4982330;28;20392;-79
2023/01/26 12:51:58;;;;;;;18.58;2.17;;;7.80;99.90;;;;;;4986613;28;20061;-80
2023/01/26 12:54:33;;;;;;;12.52;2.25;;;7.90;99.90;;;;;;4983424;28;20044;-77
2023/01/26 12:57:03;;;;;;;15.82;2.72;;;7.90;99.90;;;;;;4982367;28;20077;-77
2023/01/26 12:59:36;;;;;;;12.05;2.75;;;7.80;99.90;;;;;;4984587;28;20076;-76
2023/01/26 13:02:14;;;;;;;14.55;2.63;;;7.90;99.90;;;;;;4985217;28;20133;-76
2023/01/26 13:04:41;;;;;;;18.42;3.15;;;7.80;99.90;;;;;;4988875;28;20107;-77
2023/01/26 13:07:25;;;;;;;14.85;2.85;;;7.90;99.90;;;;;;4989602;28;20193;-78
2023/01/26 13:10:09;;;;;;;;;;;7.80;99.90;;;;;;4980608;28;20093;-77
2023/01/26 13:12:50;;;;;;;17.40;2.55;;;7.80;99.90;;;;;;4982536;28;20433;-77
2023/01/26 13:15:22;;;;;;;19.00;3.55;;;7.80;99.90;;;;;;4983812;28;20218;-77
2023/01/26 13:17:49;;;;;;;17.95;2.92;;;7.70;99.90;;;;;;4982664;28;20043;-78
2023/01/26 13:20:28;;;;;;;16.23;2.30;;;7.80;99.90;;;;;;4987245;28;20038;-78
2023/01/26 13:22:55;;;;;;;16.65;3.20;;;7.90;99.90;;;;;;4994850;28;20429;-78
2023/01/26 13:25:31;;;;;;;13.85;2.67;;;8.00;99.90;;;;;;4985089;28;20148;-78
2023/01/26 13:28:02;;;;;;;18.83;3.22;;;8.00;99.90;;;;;;4985328;28;20073;-76
2023/01/26 13:30:42;;;;;;;15.02;2.83;;;8.00;99.90;;;;;;4984250;28;20449;-75
2023/01/26 13:33:15;;;;;;;10.25;1.85;;;8.00;99.90;;;;;;4978560;28;20471;-77
2023/01/26 13:35:41;;;;;;;19.92;2.88;;;7.90;99.90;;;;;;4986409;28;20064;-79
2023/01/26 13:38:27;;;;;;;12.80;2.70;;;7.90;99.90;;;;;;4982444;28;20104;-78
2023/01/26 13:40:54;;;;;;;15.48;2.45;;;7.80;99.90;;;;;;4983402;28;20035;-80